Time;durP1;ratioP1;P1;durP2;ratioP2;P2;SDS_P1;SDS_P2;PMS_P1;PMS_P2;Temp;Humidity;BMP_temperature;BMP_pressure;BME280_temperature;BME280_humidity;BME280_pressure;Samples;Min_cycle;Max_cycle;Signal;HPM_P1;HPM_P2
2022/12/10 00:02:19;;;;;;;71.50;35.30;;;;;;;1.61;84.19;99205.12;126342;1294;99656;-72
2022/12/10 00:05:21;;;;;;;70.00;34.90;;;;;;;1.57;84.24;99204.81;126253;1291;99746;-72
2022/12/10 00:08:24;;;;;;;70.20;35.20;;;;;;;1.52;84.27;99204.38;126269;1280;100508;-75
2022/12/10 00:11:27;;;;;;;76.40;35.90;;;;;;;1.46;84.45;99210.63;126508;1285;99364;-74
2022/12/10 00:14:29;;;;;;;76.80;36.00;;;;;;;1.32;84.59;99205.73;126498;1300;99361;-74
2022/12/10 00:17:32;;;;;;;78.40;36.70;;;;;;;1.25;84.78;99206.67;126322;1287;99955;-74
2022/12/10 00:20:36;;;;;;;66.90;31.90;;;;;;;1.23;84.80;99206.48;126276;1300;99538;-74
2022/12/10 00:23:40;;;;;;;72.10;34.30;;;;;;;1.33;85.06;99202.88;126429;1284;99834;-73
2022/12/10 00:26:42;;;;;;;73.20;33.70;;;;;;;1.40;84.71;99200.24;126292;1278;99496;-74
2022/12/10 00:29:45;;;;;;;69.30;35.60;;;;;;;1.41;84.69;99197.71;126379;1285;99483;-74
2022/12/10 00:32:48;;;;;;;69.00;34.30;;;;;;;1.46;84.66;99191.88;126303;1294;99450;-75
2022/12/10 00:35:50;;;;;;;71.90;35.30;;;;;;;1.51;84.57;99196.55;126251;1286;100490;-74
2022/12/10 00:38:53;;;;;;;68.70;34.20;;;;;;;1.48;84.69;99209.24;126437;1277;100490;-73
2022/12/10 00:41:56;;;;;;;71.70;34.40;;;;;;;1.44;84.67;99214.30;126322;1283;99452;-76
2022/12/10 00:44:58;;;;;;;67.50;32.20;;;;;;;1.40;84.65;99217.40;126476;1278;99357;-75
2022/12/10 00:48:01;;;;;;;65.40;29.90;;;;;;;1.39;84.84;99217.13;126506;1284;112462;-74
2022/12/10 00:51:06;;;;;;;65.60;32.40;;;;;;;1.44;84.68;99216.53;126322;1284;99811;-73
2022/12/10 00:54:09;;;;;;;67.00;33.80;;;;;;;1.50;84.75;99221.85;126377;1287;112610;-75
2022/12/10 00:57:12;;;;;;;65.00;32.50;;;;;;;1.49;84.65;99214.79;126393;1292;112572;-75
2022/12/10 01:00:15;;;;;;;63.20;31.90;;;;;;;1.51;84.87;99212.88;126368;1283;99834;-74
2022/12/10 01:03:18;;;;;;;66.40;33.30;;;;;;;1.49;84.71;99210.01;126288;1292;112353;-74
2022/12/10 01:06:23;;;;;;;66.70;32.50;;;;;;;1.50;84.65;99206.83;126201;1301;112565;-72
2022/12/10 01:09:29;;;;;;;71.40;32.60;;;;;;;1.41;85.02;99210.33;126264;1285;113040;-72
2022/12/10 01:12:31;;;;;;;64.50;31.50;;;;;;;1.38;85.16;99206.52;126248;1285;112543;-75
2022/12/10 01:15:38;;;;;;;70.20;33.20;;;;;;;1.39;84.89;99205.20;126536;1285;99789;-75
2022/12/10 01:18:42;;;;;;;59.80;29.20;;;;;;;1.44;84.99;99202.03;126278;1294;112635;-72
2022/12/10 01:21:45;;;;;;;63.10;32.40;;;;;;;1.47;85.07;99199.67;126294;1285;112574;-72
2022/12/10 01:24:47;;;;;;;63.90;31.60;;;;;;;1.45;85.06;99196.86;125409;1300;1160574;-71
2022/12/10 01:27:50;;;;;;;63.80;32.60;;;;;;;1.44;85.04;99195.20;126413;1287;99378;-71
2022/12/10 01:30:52;;;;;;;67.20;31.90;;;;;;;1.48;85.11;99190.83;126323;1294;99389;-76
2022/12/10 01:33:57;;;;;;;67.30;33.00;;;;;;;1.43;85.16;99195.77;126361;1292;100506;-75
2022/12/10 01:37:02;;;;;;;64.80;32.30;;;;;;;1.42;85.15;99202.23;126432;1284;112509;-74
2022/12/10 01:40:11;;;;;;;72.30;34.90;;;;;;;1.46;85.08;99206.77;126353;1285;112614;-74
2022/12/10 01:43:15;;;;;;;74.20;33.80;;;;;;;1.48;85.07;99202.58;126500;1284;111312;-74
2022/12/10 01:46:18;;;;;;;58.80;28.80;;;;;;;1.47;85.15;99194.24;126323;1297;110799;-75
2022/12/10 01:49:23;;;;;;;64.70;32.60;;;;;;;1.44;85.06;99188.36;126229;1284;99350;-77
2022/12/10 01:52:26;;;;;;;64.20;33.70;;;;;;;1.46;85.29;99185.18;126355;1287;112530;-75
2022/12/10 01:55:43;;;;;;;61.10;32.40;;;;;;;1.45;85.15;99179.00;126269;1287;100036;-74
2022/12/10 01:58:49;;;;;;;61.70;31.30;;;;;;;1.43;85.22;99177.60;126407;1294;111568;-73
2022/12/10 02:02:00;;;;;;;63.40;32.20;;;;;;;1.42;85.16;99178.16;126312;1284;112598;-71
2022/12/10 02:05:13;;;;;;;67.80;33.80;;;;;;;1.39;85.36;99176.69;126241;1301;112621;-73
2022/12/10 02:08:25;;;;;;;67.10;32.60;;;;;;;1.34;85.27;99186.67;126279;1285;112636;-75
2022/12/10 02:11:33;;;;;;;61.90;30.10;;;;;;;1.37;85.43;99190.25;126204;1284;113725;-72
2022/12/10 02:14:47;;;;;;;64.80;32.20;;;;;;;1.42;85.40;99184.46;126326;1288;112622;-74
2022/12/10 02:17:54;;;;;;;55.60;29.70;;;;;;;1.45;85.21;99186.92;126383;1294;112593;-75
2022/12/10 02:21:02;;;;;;;59.80;30.90;;;;;;;1.47;85.41;99190.39;126384;1294;112510;-73
2022/12/10 02:24:08;;;;;;;58.80;30.20;;;;;;;1.51;85.38;99186.02;126268;1306;112520;-73
2022/12/10 02:27:16;;;;;;;62.90;32.60;;;;;;;1.52;85.31;99186.66;126165;1294;112555;-75
2022/12/10 02:30:19;;;;;;;57.10;29.50;;;;;;;1.52;85.30;99183.11;126352;1285;112595;-75
2022/12/10 02:33:24;;;;;;;70.10;33.60;;;;;;;1.51;85.09;99187.77;126161;1293;112579;-72
2022/12/10 02:36:32;;;;;;;69.70;32.90;;;;;;;1.42;85.39;99191.28;126224;1285;112746;-75
2022/12/10 02:39:48;;;;;;;59.30;29.30;;;;;;;1.39;85.38;99196.66;126326;1289;111549;-75
2022/12/10 02:42:52;;;;;;;61.20;30.80;;;;;;;1.42;85.50;99202.04;126461;1295;112468;-75
2022/12/10 02:45:58;;;;;;;59.30;30.50;;;;;;;1.48;85.36;99202.03;126594;1285;112618;-74
2022/12/10 02:49:03;;;;;;;60.10;30.60;;;;;;;1.51;85.41;99200.02;126314;1286;112464;-75
2022/12/10 02:52:08;;;;;;;59.90;31.00;;;;;;;1.50;85.27;99193.48;126163;1293;112981;-74
2022/12/10 02:55:12;;;;;;;64.30;32.70;;;;;;;1.45;85.27;99195.60;126235;1293;112456;-74
2022/12/10 02:58:25;;;;;;;69.50;33.60;;;;;;;1.37;85.53;99195.37;126324;1298;113720;-76
2022/12/10 03:01:36;;;;;;;68.50;32.10;;;;;;;1.28;85.68;99190.48;126315;1294;112664;-75
2022/12/10 03:04:47;;;;;;;59.10;29.50;;;;;;;1.25;85.90;99187.94;126143;1283;112416;-75
2022/12/10 03:07:57;;;;;;;63.70;31.80;;;;;;;1.27;86.14;99189.84;126300;1295;111515;-75
2022/12/10 03:11:08;;;;;;;66.40;31.20;;;;;;;1.30;85.76;99188.02;126306;1290;112462;-75
2022/12/10 03:14:16;;;;;;;64.80;32.00;;;;;;;1.29;85.86;99187.03;126347;1294;112548;-75
2022/12/10 03:17:20;;;;;;;60.80;30.40;;;;;;;1.28;85.80;99187.46;126246;1285;112517;-75
2022/12/10 03:20:25;;;;;;;61.60;31.50;;;;;;;1.32;85.79;99185.81;126297;1301;112437;-75
2022/12/10 03:23:29;;;;;;;69.70;32.60;;;;;;;1.32;85.96;99184.94;126297;1284;112492;-73
2022/12/10 03:26:33;;;;;;;67.60;32.30;;;;;;;1.34;85.76;99187.20;126275;1294;112502;-73
2022/12/10 03:29:40;;;;;;;57.10;27.20;;;;;;;1.35;85.79;99193.46;126273;1295;112454;-73
2022/12/10 03:32:44;;;;;;;64.50;31.30;;;;;;;1.36;85.81;99194.58;126367;1277;112545;-75
2022/12/10 03:35:48;;;;;;;62.90;31.10;;;;;;;1.40;85.69;99189.04;126364;1283;112468;-75
2022/12/10 03:38:51;;;;;;;61.60;30.80;;;;;;;1.41;85.75;99188.09;126359;1305;112729;-75
2022/12/10 03:41:54;;;;;;;60.20;30.80;;;;;;;1.45;85.74;99186.16;126326;1294;112413;-73
2022/12/10 03:44:57;;;;;;;62.70;31.00;;;;;;;1.46;85.56;99183.98;126361;1293;100528;-72
2022/12/10 03:48:00;;;;;;;63.60;31.00;;;;;;;1.45;85.77;99190.05;126205;1286;100531;-72
2022/12/10 03:51:03;;;;;;;66.10;31.20;;;;;;;1.44;85.86;99191.70;126325;1290;99322;-73
2022/12/10 03:54:06;;;;;;;58.20;27.70;;;;;;;1.42;85.82;99195.32;126486;1295;99364;-73
2022/12/10 03:57:08;;;;;;;61.30;29.80;;;;;;;1.44;85.80;99196.08;126381;1290;99641;-73
2022/12/10 04:00:13;;;;;;;60.30;28.80;;;;;;;1.41;85.84;99194.91;126329;1301;99925;-74
2022/12/10 04:03:17;;;;;;;62.40;30.90;;;;;;;1.39;85.79;99188.04;126336;1285;112545;-73
2022/12/10 04:06:20;;;;;;;61.70;29.80;;;;;;;1.38;85.97;99176.04;126371;1285;99849;-74
2022/12/10 04:09:22;;;;;;;62.30;30.00;;;;;;;1.33;85.94;99176.61;126338;1289;99337;-74
2022/12/10 04:12:25;;;;;;;68.90;31.30;;;;;;;1.29;85.96;99183.93;126281;1294;99434;-74
2022/12/10 04:18:49;;;;;;;61.20;29.10;;;;;;;1.25;86.57;99186.53;126320;1285;111077;-73
2022/12/10 04:28:34;;;;;;;60.70;28.50;;;;;;;1.23;86.29;99197.19;126347;1286;111350;-73
2022/12/10 04:31:37;;;;;;;59.30;28.70;;;;;;;1.27;86.42;99201.95;126320;1285;99776;-73
2022/12/10 04:34:39;;;;;;;65.30;30.60;;;;;;;1.30;86.21;99203.25;126397;1285;99353;-73
2022/12/10 04:37:42;;;;;;;73.00;33.00;;;;;;;1.27;86.11;99209.36;126328;1289;99367;-74
2022/12/10 04:40:44;;;;;;;69.20;31.60;;;;;;;1.20;86.43;99211.09;126315;1296;100496;-74
2022/12/10 04:43:47;;;;;;;57.20;26.80;;;;;;;1.16;86.41;99209.95;126260;1285;99316;-72
2022/12/10 04:46:50;;;;;;;61.00;29.40;;;;;;;1.17;86.73;99207.42;126370;1290;99874;-71
2022/12/10 04:49:52;;;;;;;62.80;29.90;;;;;;;1.17;86.54;99210.27;126256;1283;107549;-74
2022/12/10 04:52:55;;;;;;;64.90;30.40;;;;;;;1.16;86.54;99210.83;126365;1294;99433;-73
2022/12/10 04:55:58;;;;;;;62.10;29.90;;;;;;;1.21;86.63;99214.29;126254;1282;99360;-74
2022/12/10 04:59:01;;;;;;;76.30;32.60;;;;;;;1.15;86.78;99219.31;126318;1284;99770;-76
2022/12/10 05:02:03;;;;;;;62.90;29.00;;;;;;;1.09;86.71;99223.65;126614;1290;99569;-74
2022/12/10 05:05:07;;;;;;;55.60;25.50;;;;;;;1.13;86.73;99221.73;126522;1284;100509;-74
2022/12/10 05:08:10;;;;;;;60.20;28.10;;;;;;;1.21;86.57;99217.47;126440;1293;100544;-74
2022/12/10 05:11:15;;;;;;;68.80;29.70;;;;;;;1.27;86.64;99218.40;126274;1284;100514;-73
2022/12/10 05:14:17;;;;;;;63.60;29.70;;;;;;;1.25;86.73;99218.09;126476;1287;108864;-73
2022/12/10 05:17:20;;;;;;;66.40;30.20;;;;;;;1.19;86.77;99221.81;126295;1287;99582;-72
2022/12/10 05:20:23;;;;;;;66.40;29.50;;;;;;;1.18;86.73;99223.46;126407;1283;99746;-75
2022/12/10 05:23:28;;;;;;;76.10;32.20;;;;;;;1.13;86.85;99224.56;126448;1283;99348;-74
2022/12/10 05:26:31;;;;;;;71.20;29.60;;;;;;;1.07;87.05;99228.69;126456;1285;105363;-74
2022/12/10 05:29:34;;;;;;;62.90;27.20;;;;;;;1.03;87.26;99227.99;126646;1284;100968;-73
2022/12/10 05:32:37;;;;;;;63.40;28.90;;;;;;;1.06;87.33;99224.95;126487;1290;100531;-73
2022/12/10 05:35:39;;;;;;;68.70;30.90;;;;;;;1.10;87.17;99227.77;126347;1289;99360;-73
2022/12/10 05:38:42;;;;;;;64.60;30.50;;;;;;;1.09;87.21;99232.92;126458;1291;99375;-73
2022/12/10 05:41:45;;;;;;;65.60;29.80;;;;;;;1.13;87.08;99225.44;126503;1291;99726;-73
2022/12/10 05:44:48;;;;;;;67.60;29.80;;;;;;;1.15;87.09;99225.98;126446;1290;99357;-74
2022/12/10 05:47:50;;;;;;;68.30;27.60;;;;;;;1.14;87.01;99229.00;126318;1283;99319;-74
2022/12/10 05:50:53;;;;;;;64.90;28.00;;;;;;;1.13;87.05;99234.54;126380;1290;99424;-74
2022/12/10 05:53:57;;;;;;;60.80;26.70;;;;;;;1.15;87.28;99232.08;126346;1290;99898;-74
2022/12/10 05:57:00;;;;;;;61.60;27.10;;;;;;;1.15;86.97;99237.02;126564;1291;99372;-72
2022/12/10 06:00:03;;;;;;;58.60;27.60;;;;;;;1.22;87.03;99240.88;126422;1290;100410;-74
2022/12/10 06:03:15;;;;;;;65.20;29.60;;;;;;;1.27;86.98;99247.52;126308;1290;100411;-74
2022/12/10 06:06:22;;;;;;;62.00;28.90;;;;;;;1.25;87.04;99247.48;126316;1290;99546;-72
2022/12/10 06:09:25;;;;;;;61.70;28.30;;;;;;;1.22;86.87;99249.67;126365;1290;99375;-72
2022/12/10 06:12:28;;;;;;;68.10;28.60;;;;;;;1.20;87.06;99254.00;126378;1294;99335;-77
2022/12/10 06:15:30;;;;;;;60.50;27.50;;;;;;;1.21;86.99;99259.70;126204;1283;100542;-73
2022/12/10 06:18:33;;;;;;;63.00;28.00;;;;;;;1.29;86.98;99258.70;126351;1295;99356;-73
2022/12/10 06:21:36;;;;;;;56.10;26.70;;;;;;;1.30;86.85;99261.27;126456;1294;99453;-74
2022/12/10 06:24:39;;;;;;;56.90;26.90;;;;;;;1.36;86.91;99263.27;126443;1284;99873;-73
2022/12/10 06:27:41;;;;;;;56.00;26.30;;;;;;;1.43;86.83;99267.43;126331;1305;100011;-73
2022/12/10 06:30:44;;;;;;;57.90;26.70;;;;;;;1.49;86.70;99271.71;126295;1296;99422;-75
2022/12/10 06:33:47;;;;;;;61.40;27.40;;;;;;;1.48;86.58;99272.14;126580;1286;100521;-73
2022/12/10 06:36:49;;;;;;;59.90;27.30;;;;;;;1.44;86.44;99275.08;126422;1289;99381;-74
2022/12/10 06:39:52;;;;;;;60.80;27.40;;;;;;;1.32;86.57;99275.29;126376;1290;99696;-74
2022/12/10 06:42:55;;;;;;;64.00;28.30;;;;;;;1.29;87.03;99283.41;126524;1287;100385;-75
2022/12/10 06:45:57;;;;;;;65.70;28.70;;;;;;;1.29;86.89;99281.52;126547;1285;99384;-74
2022/12/10 06:49:00;;;;;;;54.10;23.60;;;;;;;1.33;86.95;99281.91;126341;1283;99834;-74
2022/12/10 06:52:03;;;;;;;62.30;26.80;;;;;;;1.40;86.95;99282.61;126382;1286;99804;-74
2022/12/10 06:55:07;;;;;;;61.20;27.60;;;;;;;1.43;86.81;99281.63;126349;1292;99444;-73
2022/12/10 06:58:09;;;;;;;63.90;28.60;;;;;;;1.43;86.69;99279.71;126270;1285;100534;-72
2022/12/10 07:01:14;;;;;;;64.20;28.70;;;;;;;1.39;86.90;99280.75;126351;1290;99451;-75
2022/12/10 07:04:17;;;;;;;59.60;26.90;;;;;;;1.28;86.93;99282.46;126365;1291;100528;-75
2022/12/10 07:07:19;;;;;;;70.30;28.50;;;;;;;1.24;87.10;99287.02;126325;1286;99444;-73
2022/12/10 07:10:22;;;;;;;68.90;28.90;;;;;;;1.18;87.39;99284.83;126087;1293;99399;-75
2022/12/10 07:13:25;;;;;;;56.70;24.60;;;;;;;1.16;87.26;99289.84;126241;1290;99378;-74
2022/12/10 07:16:29;;;;;;;63.70;28.20;;;;;;;1.22;87.44;99293.23;126338;1296;100545;-73
2022/12/10 07:19:32;;;;;;;64.70;28.30;;;;;;;1.24;87.29;99291.55;126345;1293;99410;-74
2022/12/10 07:22:35;;;;;;;66.40;29.00;;;;;;;1.24;87.32;99288.71;126796;1290;99482;-76
2022/12/10 07:25:37;;;;;;;65.90;30.80;;;;;;;1.20;87.48;99295.00;126262;1287;100535;-74
2022/12/10 07:28:40;;;;;;;82.70;31.20;;;;;;;1.13;87.64;99288.17;126319;1283;99787;-72
2022/12/10 07:31:43;;;;;;;71.60;29.80;;;;;;;1.09;87.57;99287.39;126619;1290;100980;-72
2022/12/10 07:34:45;;;;;;;66.60;28.30;;;;;;;1.14;87.76;99286.83;126317;1284;99367;-73
2022/12/10 07:37:48;;;;;;;65.80;28.20;;;;;;;1.20;87.57;99287.82;126227;1296;99370;-74
2022/12/10 07:40:51;;;;;;;61.60;27.60;;;;;;;1.28;87.56;99285.13;126332;1290;100399;-72
2022/12/10 07:43:54;;;;;;;63.50;27.70;;;;;;;1.38;87.42;99289.77;126337;1283;112499;-75
2022/12/10 07:46:57;;;;;;;58.10;26.40;;;;;;;1.44;87.21;99292.61;126387;1291;99840;-71
2022/12/10 07:49:59;;;;;;;59.60;27.90;;;;;;;1.44;87.07;99299.08;126264;1289;99406;-71
2022/12/10 07:53:02;;;;;;;65.50;29.60;;;;;;;1.41;87.01;99297.05;126123;1290;100516;-71
2022/12/10 07:56:06;;;;;;;61.40;27.70;;;;;;;1.38;86.98;99291.68;126146;1293;99921;-71
2022/12/10 07:59:09;;;;;;;65.40;29.60;;;;;;;1.38;87.19;99286.38;126158;1292;99379;-71
2022/12/10 08:02:15;;;;;;;68.30;29.70;;;;;;;1.39;87.27;99281.63;126259;1296;112563;-73
2022/12/10 08:05:18;;;;;;;59.50;26.10;;;;;;;1.39;86.94;99278.98;126261;1283;113087;-75
2022/12/10 08:08:21;;;;;;;65.30;28.40;;;;;;;1.39;86.94;99276.54;126309;1284;99344;-72
2022/12/10 08:11:23;;;;;;;64.70;29.30;;;;;;;1.42;87.14;99271.76;126554;1290;99872;-74
2022/12/10 08:14:26;;;;;;;55.70;25.90;;;;;;;1.42;86.96;99271.40;126360;1287;99381;-74
2022/12/10 08:17:29;;;;;;;57.90;27.60;;;;;;;1.39;86.91;99271.06;126273;1294;99369;-71
2022/12/10 08:20:31;;;;;;;55.80;26.00;;;;;;;1.33;86.97;99273.48;126050;1292;99421;-71
2022/12/10 08:23:35;;;;;;;58.30;24.90;;;;;;;1.27;87.15;99275.70;126292;1283;99469;-75
2022/12/10 08:26:38;;;;;;;56.50;25.10;;;;;;;1.30;87.19;99283.54;126518;1284;99401;-74
2022/12/10 08:29:41;;;;;;;50.10;22.50;;;;;;;1.32;87.08;99291.92;126341;1284;100386;-76
2022/12/10 08:32:43;;;;;;;51.30;23.50;;;;;;;1.36;87.05;99297.80;126370;1292;99449;-75
2022/12/10 08:35:46;;;;;;;45.70;22.10;;;;;;;1.40;86.85;99300.95;126309;1288;100517;-76
2022/12/10 08:38:49;;;;;;;48.50;24.00;;;;;;;1.49;87.03;99303.45;126376;1292;99546;-75
2022/12/10 08:41:51;;;;;;;49.10;23.60;;;;;;;1.54;86.74;99303.55;126278;1285;107499;-73
2022/12/10 08:44:54;;;;;;;47.50;22.80;;;;;;;1.59;86.62;99305.88;126414;1293;99331;-73
2022/12/10 08:47:57;;;;;;;47.80;23.30;;;;;;;1.54;86.56;99310.08;126262;1289;99345;-72
2022/12/10 08:50:59;;;;;;;51.10;24.70;;;;;;;1.55;86.58;99312.45;126326;1293;99809;-75
2022/12/10 08:54:03;;;;;;;46.90;22.00;;;;;;;1.55;86.60;99315.05;126152;1283;99346;-73
2022/12/10 08:57:05;;;;;;;41.90;19.80;;;;;;;1.59;86.58;99314.77;126237;1284;100501;-74
2022/12/10 09:00:11;;;;;;;45.30;22.30;;;;;;;1.65;86.69;99313.96;126394;1285;99357;-71
2022/12/10 09:03:14;;;;;;;45.40;22.40;;;;;;;1.68;86.54;99312.66;126594;1284;107368;-75
2022/12/10 09:06:19;;;;;;;44.50;22.20;;;;;;;1.66;86.25;99305.15;126286;1285;99424;-73
2022/12/10 09:09:22;;;;;;;47.20;22.30;;;;;;;1.52;86.36;99305.66;126417;1289;108570;-74
2022/12/10 09:12:24;;;;;;;43.40;21.80;;;;;;;1.36;86.45;99308.12;126293;1284;99356;-72
2022/12/10 09:15:27;;;;;;;46.90;22.80;;;;;;;1.32;86.84;99310.19;126399;1292;99418;-72
2022/12/10 09:18:29;;;;;;;51.00;22.70;;;;;;;1.37;86.92;99312.78;126413;1281;100420;-72
2022/12/10 09:21:32;;;;;;;46.50;23.00;;;;;;;1.46;87.02;99314.52;126444;1278;99444;-73
2022/12/10 09:24:35;;;;;;;42.40;21.10;;;;;;;1.60;86.82;99311.91;126333;1297;100534;-72
2022/12/10 09:27:38;;;;;;;46.60;22.70;;;;;;;1.71;86.76;99313.52;126695;1278;99341;-71
2022/12/10 09:30:41;;;;;;;48.30;22.50;;;;;;;1.77;86.60;99312.47;126464;1292;99312;-75
2022/12/10 09:33:44;;;;;;;49.70;24.40;;;;;;;1.81;86.56;99308.02;126300;1290;99434;-73
2022/12/10 09:36:48;;;;;;;49.50;23.80;;;;;;;1.85;86.40;99308.39;126333;1283;99455;-72
2022/12/10 09:39:50;;;;;;;49.50;23.80;;;;;;;1.88;86.46;99312.70;126201;1284;99780;-73
2022/12/10 09:42:59;;;;;;;49.20;24.00;;;;;;;1.84;86.08;99311.10;126534;1284;100531;-73
2022/12/10 09:46:14;;;;;;;48.40;24.10;;;;;;;1.78;86.19;99308.42;126891;1292;99697;-72
2022/12/10 09:49:27;;;;;;;48.80;23.60;;;;;;;1.72;86.24;99312.70;126774;1286;99333;-72
2022/12/10 09:52:37;;;;;;;49.40;22.60;;;;;;;1.68;86.43;99311.41;126438;1294;99395;-72
2022/12/10 09:55:45;;;;;;;43.70;20.40;;;;;;;1.73;86.68;99310.16;126245;1283;101373;-72
2022/12/10 09:58:48;;;;;;;41.90;21.10;;;;;;;1.81;86.34;99318.30;126318;1301;99437;-71
2022/12/10 10:02:02;;;;;;;46.30;23.30;;;;;;;1.85;86.46;99317.26;126397;1281;99364;-74
2022/12/10 10:05:14;;;;;;;58.70;30.90;;;;;;;1.86;86.06;99321.81;126301;1294;99344;-73
2022/12/10 10:08:23;;;;;;;52.20;28.70;;;;;;;1.83;86.05;99318.86;126180;1284;99422;-73
2022/12/10 10:11:30;;;;;;;54.00;27.40;;;;;;;1.86;86.24;99315.83;126132;1277;99361;-71
2022/12/10 10:14:33;;;;;;;46.00;24.20;;;;;;;1.83;85.89;99316.39;126348;1291;100376;-70
2022/12/10 10:17:38;;;;;;;47.00;22.20;;;;;;;1.79;86.32;99315.19;126342;1292;99458;-71
2022/12/10 10:20:42;;;;;;;60.50;29.10;;;;;;;1.84;86.31;99313.04;126483;1280;100496;-72
2022/12/10 10:23:46;;;;;;;264.70;130.50;;;;;;;1.85;85.93;99306.44;126592;1285;99369;-72
2022/12/10 10:26:51;;;;;;;113.90;51.50;;;;;;;1.87;86.14;99296.82;126483;1277;99904;-73
2022/12/10 10:29:56;;;;;;;100.70;52.70;;;;;;;1.95;86.18;99295.11;126461;1301;99383;-76
2022/12/10 10:33:08;;;;;;;46.10;23.60;;;;;;;1.98;85.78;99287.16;126376;1302;100499;-74
2022/12/10 10:36:11;;;;;;;48.80;23.50;;;;;;;1.97;85.87;99274.95;126297;1284;99702;-75
2022/12/10 10:39:27;;;;;;;45.20;23.40;;;;;;;2.03;86.16;99270.85;126330;1284;99894;-71
2022/12/10 10:42:36;;;;;;;44.60;23.10;;;;;;;2.06;85.91;99271.85;126331;1287;99440;-74
2022/12/10 10:45:42;;;;;;;45.10;22.50;;;;;;;1.97;85.70;99265.52;126471;1284;100656;-72
2022/12/10 10:48:45;;;;;;;54.70;28.30;;;;;;;1.95;85.89;99263.74;126360;1284;99463;-74
2022/12/10 10:51:48;;;;;;;45.50;21.10;;;;;;;1.90;85.69;99263.23;126312;1290;99967;-73
2022/12/10 10:54:50;;;;;;;49.40;23.80;;;;;;;1.91;85.79;99262.06;126350;1283;100500;-73
2022/12/10 10:57:53;;;;;;;44.90;22.30;;;;;;;1.99;86.07;99254.97;126312;1285;99349;-71
2022/12/10 11:00:59;;;;;;;45.10;21.80;;;;;;;2.06;85.79;99249.02;126265;1287;99458;-73
2022/12/10 11:04:02;;;;;;;48.50;25.20;;;;;;;2.05;85.73;99251.75;126350;1290;99327;-73
2022/12/10 11:07:19;;;;;;;44.30;23.00;;;;;;;2.08;85.57;99242.15;126296;1285;100495;-73
2022/12/10 11:10:25;;;;;;;42.10;22.70;;;;;;;2.05;85.75;99242.75;126324;1283;99387;-72
2022/12/10 11:13:29;;;;;;;50.50;26.20;;;;;;;2.07;85.88;99241.40;126373;1293;99352;-71
2022/12/10 11:16:33;;;;;;;42.40;21.10;;;;;;;2.09;85.66;99243.47;126094;1293;99420;-71
2022/12/10 11:19:41;;;;;;;38.20;19.60;;;;;;;2.10;85.48;99253.54;126100;1294;99343;-71
2022/12/10 11:22:51;;;;;;;44.00;21.70;;;;;;;2.09;85.26;99254.56;126210;1283;99415;-73
2022/12/10 11:26:03;;;;;;;81.00;44.50;;;;;;;2.05;85.49;99260.84;126341;1285;99391;-74
2022/12/10 11:29:18;;;;;;;51.50;25.90;;;;;;;1.99;85.34;99256.91;126209;1307;99381;-71
2022/12/10 11:32:34;;;;;;;55.50;26.40;;;;;;;1.91;85.48;99254.36;126151;1285;99377;-71
2022/12/10 11:35:49;;;;;;;47.90;24.20;;;;;;;1.82;85.53;99258.95;126247;1292;99603;-71
2022/12/10 11:39:05;;;;;;;46.60;21.40;;;;;;;1.69;85.74;99254.90;126294;1284;99436;-73
2022/12/10 11:42:17;;;;;;;44.50;21.90;;;;;;;1.60;85.83;99252.09;126347;1285;99434;-74
2022/12/10 11:45:24;;;;;;;38.50;17.80;;;;;;;1.55;85.82;99252.84;126106;1286;100499;-71
2022/12/10 11:48:41;;;;;;;42.50;20.10;;;;;;;1.56;86.06;99254.19;126249;1284;99421;-71
2022/12/10 11:51:51;;;;;;;43.50;21.90;;;;;;;1.66;86.14;99249.73;126068;1287;100494;-70
2022/12/10 11:55:07;;;;;;;42.40;22.00;;;;;;;1.81;86.04;99245.59;126241;1285;99341;-72
2022/12/10 11:58:28;;;;;;;68.00;32.20;;;;;;;1.88;85.74;99250.42;126323;1294;99431;-72
2022/12/10 12:01:48;;;;;;;72.20;33.20;;;;;;;1.90;85.71;99254.61;126371;1285;99435;-71
2022/12/10 12:05:08;;;;;;;95.10;41.30;;;;;;;1.92;85.68;99260.24;126299;1291;100475;-72
2022/12/10 12:08:17;;;;;;;46.70;21.90;;;;;;;1.94;85.58;99262.73;126335;1294;99439;-73
2022/12/10 12:11:31;;;;;;;37.00;18.00;;;;;;;1.90;85.62;99263.55;126114;1277;99350;-71
2022/12/10 12:14:41;;;;;;;37.50;18.70;;;;;;;1.95;85.73;99269.36;126256;1284;99428;-71
2022/12/10 12:17:49;;;;;;;38.20;18.90;;;;;;;1.98;85.41;99276.09;126298;1290;100516;-73
2022/12/10 12:20:57;;;;;;;37.70;18.20;;;;;;;1.99;85.35;99277.11;126344;1277;99361;-73
2022/12/10 12:24:07;;;;;;;47.70;23.00;;;;;;;1.99;85.38;99273.46;126285;1277;100014;-72
2022/12/10 12:27:16;;;;;;;58.00;27.70;;;;;;;1.94;85.48;99272.91;126353;1283;100011;-71
2022/12/10 12:30:21;;;;;;;62.20;31.50;;;;;;;1.91;85.57;99275.61;126300;1289;99355;-72
2022/12/10 12:33:29;;;;;;;59.80;28.50;;;;;;;1.91;85.60;99279.48;126362;1293;99373;-72
2022/12/10 12:36:34;;;;;;;72.70;30.90;;;;;;;1.93;85.78;99279.45;126301;1292;99335;-72
2022/12/10 12:39:46;;;;;;;55.20;23.80;;;;;;;1.91;85.59;99281.61;126329;1285;99333;-72
2022/12/10 12:42:55;;;;;;;44.30;20.00;;;;;;;1.94;85.72;99291.48;126286;1301;99409;-72
2022/12/10 12:45:58;;;;;;;50.00;24.80;;;;;;;2.00;85.66;99299.46;126439;1285;99370;-73
2022/12/10 12:49:07;;;;;;;47.30;23.80;;;;;;;2.07;85.61;99302.91;126151;1277;99523;-71
2022/12/10 12:52:26;;;;;;;45.90;24.40;;;;;;;2.10;85.50;99308.14;126131;1284;99453;-72
2022/12/10 12:55:37;;;;;;;55.30;26.20;;;;;;;2.10;85.49;99305.55;126178;1286;100534;-72
2022/12/10 12:58:47;;;;;;;93.80;41.50;;;;;;;2.11;85.32;99304.02;126272;1287;99437;-72
2022/12/10 13:01:53;;;;;;;158.20;66.20;;;;;;;2.12;85.41;99308.36;126075;1284;100412;-71
2022/12/10 13:05:00;;;;;;;141.90;59.60;;;;;;;2.11;85.21;99313.81;126187;1273;99347;-71
2022/12/10 13:08:39;;;;;;;89.10;36.10;;;;;;;2.04;85.34;99318.96;126133;1287;99351;-71
2022/12/10 13:11:43;;;;;;;44.10;21.20;;;;;;;1.93;85.28;99319.63;125970;1284;99473;-71
2022/12/10 13:15:03;;;;;;;40.60;18.60;;;;;;;1.90;85.64;99319.36;126100;1292;100496;-71
2022/12/10 13:18:35;;;;;;;45.40;21.40;;;;;;;1.91;85.53;99324.70;126213;1292;99403;-71
2022/12/10 13:21:57;;;;;;;39.60;20.60;;;;;;;1.88;85.55;99324.39;126275;1292;100496;-71
2022/12/10 13:25:10;;;;;;;42.10;20.50;;;;;;;1.92;85.81;99323.60;125398;1292;1152701;-73
2022/12/10 13:28:29;;;;;;;39.50;18.70;;;;;;;1.95;85.68;99321.08;126180;1294;100499;-75
2022/12/10 13:31:36;;;;;;;41.60;20.30;;;;;;;1.96;85.32;99320.46;126319;1277;99382;-71
2022/12/10 13:34:39;;;;;;;48.90;22.60;;;;;;;1.93;85.68;99322.14;126302;1284;99846;-71
2022/12/10 13:37:56;;;;;;;46.50;21.90;;;;;;;1.91;85.74;99319.46;126067;1287;99356;-71
2022/12/10 13:44:38;;;;;;;49.50;22.50;;;;;;;1.78;85.59;99319.95;126215;1284;100508;-73
2022/12/10 13:47:47;;;;;;;45.30;23.20;;;;;;;1.79;85.91;99322.84;126177;1286;99338;-71
2022/12/10 13:50:56;;;;;;;47.70;22.30;;;;;;;1.84;85.92;99323.89;126400;1291;99996;-71
2022/12/10 13:54:16;;;;;;;50.10;22.20;;;;;;;1.89;85.80;99322.63;126305;1281;99414;-71
2022/12/10 13:57:37;;;;;;;65.80;35.80;;;;;;;1.87;85.60;99322.92;126436;1301;99348;-72
2022/12/10 14:00:48;;;;;;;50.60;24.50;;;;;;;1.84;85.92;99325.79;126395;1300;99388;-72
2022/12/10 14:04:13;;;;;;;57.80;23.70;;;;;;;1.75;85.56;99320.71;126370;1287;99970;-73
2022/12/10 14:07:18;;;;;;;52.60;23.40;;;;;;;1.70;85.81;99319.70;126266;1277;99359;-72
2022/12/10 14:10:26;;;;;;;45.70;19.70;;;;;;;1.72;85.99;99318.17;126369;1292;99919;-74
2022/12/10 14:13:36;;;;;;;55.60;23.80;;;;;;;1.76;85.78;99313.42;126320;1291;101120;-74
2022/12/10 14:16:40;;;;;;;57.50;27.80;;;;;;;1.76;85.88;99311.48;126328;1284;100379;-71
2022/12/10 14:19:45;;;;;;;57.90;28.90;;;;;;;1.72;85.81;99316.41;126174;1293;99357;-71
2022/12/10 14:22:50;;;;;;;127.80;57.90;;;;;;;1.67;86.00;99314.49;126143;1284;99354;-75
2022/12/10 14:25:54;;;;;;;51.30;24.50;;;;;;;1.62;85.93;99317.56;126426;1295;99354;-73